sensor_id;sensor_type;location;lat;lon;timestamp;temperature;humidity
67974;DHT22;54756;51.140;6.952;2023-04-15T00:01:48;5.30;66.50
67974;DHT22;54756;51.140;6.952;2023-04-15T00:03:51;5.20;66.10
67974;DHT22;54756;51.140;6.952;2023-04-15T00:05:54;5.30;66.30
67974;DHT22;54756;51.140;6.952;2023-04-15T00:07:54;5.30;66.50
67974;DHT22;54756;51.140;6.952;2023-04-15T00:09:55;5.30;66.90
67974;DHT22;54756;51.140;6.952;2023-04-15T00:11:57;5.30;67.50
67974;DHT22;54756;51.140;6.952;2023-04-15T00:13:57;5.30;67.40
67974;DHT22;54756;51.140;6.952;2023-04-15T00:15:58;5.30;66.90
67974;DHT22;54756;51.140;6.952;2023-04-15T00:17:59;5.20;66.90
67974;DHT22;54756;51.140;6.952;2023-04-15T00:19:59;5.20;67.60
67974;DHT22;54756;51.140;6.952;2023-04-15T00:22:00;5.20;67.60
67974;DHT22;54756;51.140;6.952;2023-04-15T00:24:01;5.20;67.60
67974;DHT22;54756;51.140;6.952;2023-04-15T00:26:01;5.20;67.30
67974;DHT22;54756;51.140;6.952;2023-04-15T00:28:02;5.20;67.10
67974;DHT22;54756;51.140;6.952;2023-04-15T00:30:03;5.20;67.40
67974;DHT22;54756;51.140;6.952;2023-04-15T00:32:04;5.10;67.40
67974;DHT22;54756;51.140;6.952;2023-04-15T00:34:05;5.10;68.50
67974;DHT22;54756;51.140;6.952;2023-04-15T00:36:06;5.10;68.00
67974;DHT22;54756;51.140;6.952;2023-04-15T00:38:07;5.10;67.80
67974;DHT22;54756;51.140;6.952;2023-04-15T00:40:11;5.10;67.60
67974;DHT22;54756;51.140;6.952;2023-04-15T00:42:12;5.10;67.70
67974;DHT22;54756;51.140;6.952;2023-04-15T00:44:13;5.10;67.80
67974;DHT22;54756;51.140;6.952;2023-04-15T00:46:15;5.10;68.30
67974;DHT22;54756;51.140;6.952;2023-04-15T00:48:16;5.10;68.30
67974;DHT22;54756;51.140;6.952;2023-04-15T00:50:17;5.10;68.50
67974;DHT22;54756;51.140;6.952;2023-04-15T00:52:18;5.10;68.30
67974;DHT22;54756;51.140;6.952;2023-04-15T00:54:18;5.10;68.30
67974;DHT22;54756;51.140;6.952;2023-04-15T00:56:20;5.10;68.60
67974;DHT22;54756;51.140;6.952;2023-04-15T00:58:24;5.10;68.40
67974;DHT22;54756;51.140;6.952;2023-04-15T01:00:25;5.10;69.50
67974;DHT22;54756;51.140;6.952;2023-04-15T01:02:26;5.00;68.90
67974;DHT22;54756;51.140;6.952;2023-04-15T01:04:27;5.00;68.70
67974;DHT22;54756;51.140;6.952;2023-04-15T01:06:28;4.90;68.80
67974;DHT22;54756;51.140;6.952;2023-04-15T01:08:29;4.90;69.80
67974;DHT22;54756;51.140;6.952;2023-04-15T01:10:30;4.80;70.40
67974;DHT22;54756;51.140;6.952;2023-04-15T01:12:31;4.80;70.60
67974;DHT22;54756;51.140;6.952;2023-04-15T01:14:33;4.80;70.50
67974;DHT22;54756;51.140;6.952;2023-04-15T01:16:34;4.70;70.40
67974;DHT22;54756;51.140;6.952;2023-04-15T01:18:36;4.70;70.40
67974;DHT22;54756;51.140;6.952;2023-04-15T01:20:37;4.60;70.40
67974;DHT22;54756;51.140;6.952;2023-04-15T01:22:38;4.50;70.90
67974;DHT22;54756;51.140;6.952;2023-04-15T01:24:40;4.50;71.40
67974;DHT22;54756;51.140;6.952;2023-04-15T01:26:44;4.40;71.80
67974;DHT22;54756;51.140;6.952;2023-04-15T01:28:45;4.40;72.20
67974;DHT22;54756;51.140;6.952;2023-04-15T01:30:46;4.30;72.50
67974;DHT22;54756;51.140;6.952;2023-04-15T01:32:47;4.30;72.90
67974;DHT22;54756;51.140;6.952;2023-04-15T01:34:47;4.20;73.40
67974;DHT22;54756;51.140;6.952;2023-04-15T01:36:48;4.20;73.90
67974;DHT22;54756;51.140;6.952;2023-04-15T01:38:49;4.10;74.00
67974;DHT22;54756;51.140;6.952;2023-04-15T01:40:50;4.10;74.50
67974;DHT22;54756;51.140;6.952;2023-04-15T01:42:50;4.10;75.00
67974;DHT22;54756;51.140;6.952;2023-04-15T01:44:51;4.10;75.50
67974;DHT22;54756;51.140;6.952;2023-04-15T01:46:52;4.00;75.70
67974;DHT22;54756;51.140;6.952;2023-04-15T01:48:53;4.00;76.00
67974;DHT22;54756;51.140;6.952;2023-04-15T01:50:54;4.00;76.00
67974;DHT22;54756;51.140;6.952;2023-04-15T01:52:57;4.00;76.00
67974;DHT22;54756;51.140;6.952;2023-04-15T01:54:57;3.90;76.10
67974;DHT22;54756;51.140;6.952;2023-04-15T01:56:58;3.90;76.40
67974;DHT22;54756;51.140;6.952;2023-04-15T01:58:59;3.90;76.80
67974;DHT22;54756;51.140;6.952;2023-04-15T02:00:59;3.90;76.90
67974;DHT22;54756;51.140;6.952;2023-04-15T02:03:01;3.90;77.20
67974;DHT22;54756;51.140;6.952;2023-04-15T02:05:02;3.90;77.20
67974;DHT22;54756;51.140;6.952;2023-04-15T02:07:04;3.80;77.20
67974;DHT22;54756;51.140;6.952;2023-04-15T02:09:05;3.80;77.70
67974;DHT22;54756;51.140;6.952;2023-04-15T02:11:06;3.80;77.90
67974;DHT22;54756;51.140;6.952;2023-04-15T02:13:06;3.80;78.00
67974;DHT22;54756;51.140;6.952;2023-04-15T02:15:07;3.80;78.20
67974;DHT22;54756;51.140;6.952;2023-04-15T02:17:08;3.80;78.30
67974;DHT22;54756;51.140;6.952;2023-04-15T02:19:09;3.80;78.50
67974;DHT22;54756;51.140;6.952;2023-04-15T02:21:09;3.70;78.50
67974;DHT22;54756;51.140;6.952;2023-04-15T02:23:10;3.70;78.50
67974;DHT22;54756;51.140;6.952;2023-04-15T02:25:11;3.70;78.60
67974;DHT22;54756;51.140;6.952;2023-04-15T02:27:15;3.70;78.70
67974;DHT22;54756;51.140;6.952;2023-04-15T02:29:15;3.60;78.80
67974;DHT22;54756;51.140;6.952;2023-04-15T02:31:16;3.60;78.90
67974;DHT22;54756;51.140;6.952;2023-04-15T02:33:17;3.60;79.00
67974;DHT22;54756;51.140;6.952;2023-04-15T02:35:17;3.50;79.30
67974;DHT22;54756;51.140;6.952;2023-04-15T02:37:19;3.50;79.50
67974;DHT22;54756;51.140;6.952;2023-04-15T02:39:20;3.50;79.90
67974;DHT22;54756;51.140;6.952;2023-04-15T02:41:20;3.40;80.00
67974;DHT22;54756;51.140;6.952;2023-04-15T02:43:26;3.40;80.30
67974;DHT22;54756;51.140;6.952;2023-04-15T02:45:26;3.40;80.60
67974;DHT22;54756;51.140;6.952;2023-04-15T02:47:27;3.40;80.90
67974;DHT22;54756;51.140;6.952;2023-04-15T02:49:28;3.30;80.90
67974;DHT22;54756;51.140;6.952;2023-04-15T02:51:30;3.30;81.00
67974;DHT22;54756;51.140;6.952;2023-04-15T02:53:31;3.30;81.10
67974;DHT22;54756;51.140;6.952;2023-04-15T02:55:32;3.30;81.30
67974;DHT22;54756;51.140;6.952;2023-04-15T02:57:32;3.20;81.40
67974;DHT22;54756;51.140;6.952;2023-04-15T02:59:34;3.30;81.80
67974;DHT22;54756;51.140;6.952;2023-04-15T03:01:34;3.20;81.90
67974;DHT22;54756;51.140;6.952;2023-04-15T03:03:35;3.20;82.00
67974;DHT22;54756;51.140;6.952;2023-04-15T03:05:35;3.20;82.20
67974;DHT22;54756;51.140;6.952;2023-04-15T03:07:38;3.20;82.30
67974;DHT22;54756;51.140;6.952;2023-04-15T03:09:40;3.20;82.50
67974;DHT22;54756;51.140;6.952;2023-04-15T03:11:40;3.10;82.60
67974;DHT22;54756;51.140;6.952;2023-04-15T03:13:41;3.10;82.90
67974;DHT22;54756;51.140;6.952;2023-04-15T03:15:42;3.10;83.00
67974;DHT22;54756;51.140;6.952;2023-04-15T03:17:43;3.10;83.00
67974;DHT22;54756;51.140;6.952;2023-04-15T03:19:43;3.10;83.20
67974;DHT22;54756;51.140;6.952;2023-04-15T03:21:44;3.10;83.20
67974;DHT22;54756;51.140;6.952;2023-04-15T03:23:47;3.00;83.30
67974;DHT22;54756;51.140;6.952;2023-04-15T03:25:48;3.00;83.50
67974;DHT22;54756;51.140;6.952;2023-04-15T03:27:48;3.00;83.80
67974;DHT22;54756;51.140;6.952;2023-04-15T03:29:49;3.00;84.00
67974;DHT22;54756;51.140;6.952;2023-04-15T03:31:50;3.00;84.20
67974;DHT22;54756;51.140;6.952;2023-04-15T03:33:51;3.00;84.40
67974;DHT22;54756;51.140;6.952;2023-04-15T03:35:52;3.00;84.60
67974;DHT22;54756;51.140;6.952;2023-04-15T03:37:52;3.00;84.70
67974;DHT22;54756;51.140;6.952;2023-04-15T03:39:53;3.00;84.50
67974;DHT22;54756;51.140;6.952;2023-04-15T03:41:53;3.00;84.30
67974;DHT22;54756;51.140;6.952;2023-04-15T03:43:54;3.00;84.40
67974;DHT22;54756;51.140;6.952;2023-04-15T03:45:54;2.90;84.60
67974;DHT22;54756;51.140;6.952;2023-04-15T03:47:55;2.90;84.70
67974;DHT22;54756;51.140;6.952;2023-04-15T03:49:56;2.90;84.80
67974;DHT22;54756;51.140;6.952;2023-04-15T03:51:56;2.90;85.00
67974;DHT22;54756;51.140;6.952;2023-04-15T03:53:57;2.90;84.80
67974;DHT22;54756;51.140;6.952;2023-04-15T03:55:58;2.90;85.00
67974;DHT22;54756;51.140;6.952;2023-04-15T03:57:58;2.90;85.20
67974;DHT22;54756;51.140;6.952;2023-04-15T03:59:59;2.80;85.20
67974;DHT22;54756;51.140;6.952;2023-04-15T04:01:59;2.80;85.40
67974;DHT22;54756;51.140;6.952;2023-04-15T04:04:00;2.80;85.60
67974;DHT22;54756;51.140;6.952;2023-04-15T04:06:01;2.80;86.00
67974;DHT22;54756;51.140;6.952;2023-04-15T04:08:02;2.80;86.40
67974;DHT22;54756;51.140;6.952;2023-04-15T04:10:03;2.80;86.60
67974;DHT22;54756;51.140;6.952;2023-04-15T04:12:03;2.80;86.70
67974;DHT22;54756;51.140;6.952;2023-04-15T04:14:04;2.70;86.70
67974;DHT22;54756;51.140;6.952;2023-04-15T04:16:05;2.70;86.70
67974;DHT22;54756;51.140;6.952;2023-04-15T04:18:05;2.80;87.10
67974;DHT22;54756;51.140;6.952;2023-04-15T04:20:07;2.70;87.10
67974;DHT22;54756;51.140;6.952;2023-04-15T04:22:07;2.80;87.50
67974;DHT22;54756;51.140;6.952;2023-04-15T04:24:08;2.80;87.40
67974;DHT22;54756;51.140;6.952;2023-04-15T04:26:08;2.80;87.50
67974;DHT22;54756;51.140;6.952;2023-04-15T04:28:09;2.80;87.50
67974;DHT22;54756;51.140;6.952;2023-04-15T04:30:11;2.80;87.50
67974;DHT22;54756;51.140;6.952;2023-04-15T04:32:11;2.80;87.50
67974;DHT22;54756;51.140;6.952;2023-04-15T04:34:12;2.80;87.70
67974;DHT22;54756;51.140;6.952;2023-04-15T04:36:13;2.80;87.70
67974;DHT22;54756;51.140;6.952;2023-04-15T04:38:13;2.80;88.10
67974;DHT22;54756;51.140;6.952;2023-04-15T04:40:14;2.80;88.00
67974;DHT22;54756;51.140;6.952;2023-04-15T04:42:14;2.70;87.80
67974;DHT22;54756;51.140;6.952;2023-04-15T04:44:15;2.80;88.00
67974;DHT22;54756;51.140;6.952;2023-04-15T04:46:16;2.80;88.30
67974;DHT22;54756;51.140;6.952;2023-04-15T04:48:16;2.80;88.60
67974;DHT22;54756;51.140;6.952;2023-04-15T04:50:17;2.80;88.70
67974;DHT22;54756;51.140;6.952;2023-04-15T04:52:18;2.80;88.70
67974;DHT22;54756;51.140;6.952;2023-04-15T04:54:19;2.80;90.00
67974;DHT22;54756;51.140;6.952;2023-04-15T04:56:20;2.80;90.30
67974;DHT22;54756;51.140;6.952;2023-04-15T04:58:21;2.80;90.20
67974;DHT22;54756;51.140;6.952;2023-04-15T05:00:21;2.80;90.30
67974;DHT22;54756;51.140;6.952;2023-04-15T05:02:22;2.90;90.20
67974;DHT22;54756;51.140;6.952;2023-04-15T05:04:23;2.90;90.10
67974;DHT22;54756;51.140;6.952;2023-04-15T05:06:23;2.90;90.10
67974;DHT22;54756;51.140;6.952;2023-04-15T05:08:24;2.90;90.10
67974;DHT22;54756;51.140;6.952;2023-04-15T05:10:24;2.90;90.20
67974;DHT22;54756;51.140;6.952;2023-04-15T05:12:25;2.90;90.20
67974;DHT22;54756;51.140;6.952;2023-04-15T05:14:26;2.90;90.20
67974;DHT22;54756;51.140;6.952;2023-04-15T05:16:26;3.00;90.40
67974;DHT22;54756;51.140;6.952;2023-04-15T05:18:27;3.00;90.50
67974;DHT22;54756;51.140;6.952;2023-04-15T05:20:28;3.00;90.60
67974;DHT22;54756;51.140;6.952;2023-04-15T05:22:29;3.00;90.60
67974;DHT22;54756;51.140;6.952;2023-04-15T05:24:29;3.10;90.70
67974;DHT22;54756;51.140;6.952;2023-04-15T05:26:30;3.10;90.70
67974;DHT22;54756;51.140;6.952;2023-04-15T05:28:30;3.20;91.00
67974;DHT22;54756;51.140;6.952;2023-04-15T05:30:31;3.20;91.00
67974;DHT22;54756;51.140;6.952;2023-04-15T05:32:31;3.30;91.00
67974;DHT22;54756;51.140;6.952;2023-04-15T05:34:32;3.30;90.90
67974;DHT22;54756;51.140;6.952;2023-04-15T05:36:33;3.30;90.80
67974;DHT22;54756;51.140;6.952;2023-04-15T05:38:33;3.40;91.20
67974;DHT22;54756;51.140;6.952;2023-04-15T05:40:34;3.40;90.90
67974;DHT22;54756;51.140;6.952;2023-04-15T05:42:34;3.50;91.00
67974;DHT22;54756;51.140;6.952;2023-04-15T05:44:35;3.60;91.10
67974;DHT22;54756;51.140;6.952;2023-04-15T05:46:35;3.70;91.20
67974;DHT22;54756;51.140;6.952;2023-04-15T05:48:36;3.80;91.30
67974;DHT22;54756;51.140;6.952;2023-04-15T05:50:36;3.90;91.70
67974;DHT22;54756;51.140;6.952;2023-04-15T05:52:40;4.10;91.70
67974;DHT22;54756;51.140;6.952;2023-04-15T05:54:40;4.20;92.00
67974;DHT22;54756;51.140;6.952;2023-04-15T05:56:41;4.30;91.70
67974;DHT22;54756;51.140;6.952;2023-04-15T05:58:41;4.50;91.60
67974;DHT22;54756;51.140;6.952;2023-04-15T06:00:42;4.60;91.70
67974;DHT22;54756;51.140;6.952;2023-04-15T06:02:43;4.80;91.50
67974;DHT22;54756;51.140;6.952;2023-04-15T06:04:43;4.90;91.60
67974;DHT22;54756;51.140;6.952;2023-04-15T06:06:44;5.10;91.50
67974;DHT22;54756;51.140;6.952;2023-04-15T06:08:44;5.20;91.40
67974;DHT22;54756;51.140;6.952;2023-04-15T06:10:45;5.30;91.30
67974;DHT22;54756;51.140;6.952;2023-04-15T06:12:46;5.50;91.20
67974;DHT22;54756;51.140;6.952;2023-04-15T06:14:46;5.60;91.00
67974;DHT22;54756;51.140;6.952;2023-04-15T06:16:47;5.70;90.90
67974;DHT22;54756;51.140;6.952;2023-04-15T06:18:48;5.80;90.70
67974;DHT22;54756;51.140;6.952;2023-04-15T06:20:48;5.90;90.60
67974;DHT22;54756;51.140;6.952;2023-04-15T06:22:49;6.00;90.50
67974;DHT22;54756;51.140;6.952;2023-04-15T06:24:49;6.20;90.30
67974;DHT22;54756;51.140;6.952;2023-04-15T06:26:50;6.30;90.30
67974;DHT22;54756;51.140;6.952;2023-04-15T06:28:51;6.50;90.10
67974;DHT22;54756;51.140;6.952;2023-04-15T06:30:52;6.60;89.90
67974;DHT22;54756;51.140;6.952;2023-04-15T06:32:54;6.80;89.30
67974;DHT22;54756;51.140;6.952;2023-04-15T06:34:55;6.90;89.20
67974;DHT22;54756;51.140;6.952;2023-04-15T06:36:56;7.10;89.10
67974;DHT22;54756;51.140;6.952;2023-04-15T06:38:56;7.30;88.60
67974;DHT22;54756;51.140;6.952;2023-04-15T06:40:57;7.50;87.80
67974;DHT22;54756;51.140;6.952;2023-04-15T06:42:58;7.70;87.70
67974;DHT22;54756;51.140;6.952;2023-04-15T06:44:58;7.80;87.10
67974;DHT22;54756;51.140;6.952;2023-04-15T06:46:59;8.10;86.00
67974;DHT22;54756;51.140;6.952;2023-04-15T06:48:59;8.30;85.80
67974;DHT22;54756;51.140;6.952;2023-04-15T06:51:00;8.50;84.70
67974;DHT22;54756;51.140;6.952;2023-04-15T06:53:01;8.70;83.80
67974;DHT22;54756;51.140;6.952;2023-04-15T06:55:02;8.90;82.60
67974;DHT22;54756;51.140;6.952;2023-04-15T06:57:03;9.10;81.90
67974;DHT22;54756;51.140;6.952;2023-04-15T06:59:03;9.30;80.60
67974;DHT22;54756;51.140;6.952;2023-04-15T07:01:04;9.60;79.60
67974;DHT22;54756;51.140;6.952;2023-04-15T07:03:05;9.80;78.10
67974;DHT22;54756;51.140;6.952;2023-04-15T07:05:09;9.90;76.30
67974;DHT22;54756;51.140;6.952;2023-04-15T07:07:10;10.10;75.30
67974;DHT22;54756;51.140;6.952;2023-04-15T07:09:10;10.30;75.00
67974;DHT22;54756;51.140;6.952;2023-04-15T07:11:11;10.40;74.50
67974;DHT22;54756;51.140;6.952;2023-04-15T07:13:12;10.60;74.60
67974;DHT22;54756;51.140;6.952;2023-04-15T07:15:13;10.80;73.70
67974;DHT22;54756;51.140;6.952;2023-04-15T07:17:13;11.00;72.70
67974;DHT22;54756;51.140;6.952;2023-04-15T07:19:14;11.20;71.60
67974;DHT22;54756;51.140;6.952;2023-04-15T07:21:14;11.40;65.80
67974;DHT22;54756;51.140;6.952;2023-04-15T07:23:15;11.50;63.70
67974;DHT22;54756;51.140;6.952;2023-04-15T07:25:15;11.70;62.80
67974;DHT22;54756;51.140;6.952;2023-04-15T07:27:17;11.80;56.20
67974;DHT22;54756;51.140;6.952;2023-04-15T07:29:17;12.00;54.50
67974;DHT22;54756;51.140;6.952;2023-04-15T07:31:18;12.20;41.70
67974;DHT22;54756;51.140;6.952;2023-04-15T07:33:18;12.30;46.00
67974;DHT22;54756;51.140;6.952;2023-04-15T07:35:19;12.40;45.00
67974;DHT22;54756;51.140;6.952;2023-04-15T07:37:20;12.60;47.30
67974;DHT22;54756;51.140;6.952;2023-04-15T07:39:21;12.70;43.50
67974;DHT22;54756;51.140;6.952;2023-04-15T07:41:22;12.90;43.00
67974;DHT22;54756;51.140;6.952;2023-04-15T07:43:23;13.00;35.60
67974;DHT22;54756;51.140;6.952;2023-04-15T07:45:23;13.00;41.20
67974;DHT22;54756;51.140;6.952;2023-04-15T07:47:24;13.10;40.60
67974;DHT22;54756;51.140;6.952;2023-04-15T07:49:25;13.10;38.90
67974;DHT22;54756;51.140;6.952;2023-04-15T07:51:25;13.20;36.20
67974;DHT22;54756;51.140;6.952;2023-04-15T07:53:26;13.30;39.10
67974;DHT22;54756;51.140;6.952;2023-04-15T07:55:26;13.40;34.50
67974;DHT22;54756;51.140;6.952;2023-04-15T07:57:27;13.40;29.50
67974;DHT22;54756;51.140;6.952;2023-04-15T07:59:28;13.30;30.10
67974;DHT22;54756;51.140;6.952;2023-04-15T08:01:30;13.30;31.10
67974;DHT22;54756;51.140;6.952;2023-04-15T08:03:30;13.30;31.50
67974;DHT22;54756;51.140;6.952;2023-04-15T08:05:32;13.40;33.10
67974;DHT22;54756;51.140;6.952;2023-04-15T08:07:32;13.50;33.40
67974;DHT22;54756;51.140;6.952;2023-04-15T08:09:33;13.60;30.90
67974;DHT22;54756;51.140;6.952;2023-04-15T08:11:33;13.60;24.70
67974;DHT22;54756;51.140;6.952;2023-04-15T08:13:34;13.70;25.80
67974;DHT22;54756;51.140;6.952;2023-04-15T08:15:34;13.80;26.90
67974;DHT22;54756;51.140;6.952;2023-04-15T08:17:35;13.90;27.10
67974;DHT22;54756;51.140;6.952;2023-04-15T08:19:36;14.00;27.10
67974;DHT22;54756;51.140;6.952;2023-04-15T08:21:37;14.20;23.70
67974;DHT22;54756;51.140;6.952;2023-04-15T08:23:38;14.30;25.30
67974;DHT22;54756;51.140;6.952;2023-04-15T08:25:38;14.50;25.70
67974;DHT22;54756;51.140;6.952;2023-04-15T08:27:39;14.70;15.90
67974;DHT22;54756;51.140;6.952;2023-04-15T08:29:39;14.80;19.60
67974;DHT22;54756;51.140;6.952;2023-04-15T08:31:40;14.80;18.10
67974;DHT22;54756;51.140;6.952;2023-04-15T08:33:41;14.90;15.70
67974;DHT22;54756;51.140;6.952;2023-04-15T08:35:42;14.90;18.50
67974;DHT22;54756;51.140;6.952;2023-04-15T08:37:42;14.90;11.40
67974;DHT22;54756;51.140;6.952;2023-04-15T08:39:43;14.90;11.30
67974;DHT22;54756;51.140;6.952;2023-04-15T08:42:01;14.80;12.50
67974;DHT22;54756;51.140;6.952;2023-04-15T08:44:04;14.80;13.90
67974;DHT22;54756;51.140;6.952;2023-04-15T08:46:05;14.90;14.30
67974;DHT22;54756;51.140;6.952;2023-04-15T08:48:06;14.90;10.20
67974;DHT22;54756;51.140;6.952;2023-04-15T08:50:09;14.80;10.50
67974;DHT22;54756;51.140;6.952;2023-04-15T08:52:11;14.80;12.70
67974;DHT22;54756;51.140;6.952;2023-04-15T08:54:12;14.70;12.70
67974;DHT22;54756;51.140;6.952;2023-04-15T08:56:14;14.70;12.20
67974;DHT22;54756;51.140;6.952;2023-04-15T08:58:15;14.70;14.40
67974;DHT22;54756;51.140;6.952;2023-04-15T09:00:16;14.60;14.90
67974;DHT22;54756;51.140;6.952;2023-04-15T09:02:17;14.60;17.70
67974;DHT22;54756;51.140;6.952;2023-04-15T09:04:18;14.80;17.90
67974;DHT22;54756;51.140;6.952;2023-04-15T09:06:19;14.90;15.60
67974;DHT22;54756;51.140;6.952;2023-04-15T09:08:20;15.00;17.10
67974;DHT22;54756;51.140;6.952;2023-04-15T09:10:21;15.30;17.20
67974;DHT22;54756;51.140;6.952;2023-04-15T09:12:22;15.40;15.00
67974;DHT22;54756;51.140;6.952;2023-04-15T09:14:22;15.60;14.70
67974;DHT22;54756;51.140;6.952;2023-04-15T09:16:23;15.80;12.10
67974;DHT22;54756;51.140;6.952;2023-04-15T09:18:31;15.90;9.20
67974;DHT22;54756;51.140;6.952;2023-04-15T09:20:41;16.00;6.70
67974;DHT22;54756;51.140;6.952;2023-04-15T09:22:43;16.00;6.10
67974;DHT22;54756;51.140;6.952;2023-04-15T09:24:44;15.90;4.00
67974;DHT22;54756;51.140;6.952;2023-04-15T09:26:46;15.90;5.70
67974;DHT22;54756;51.140;6.952;2023-04-15T09:28:46;15.80;6.00
67974;DHT22;54756;51.140;6.952;2023-04-15T09:30:59;15.80;6.60
67974;DHT22;54756;51.140;6.952;2023-04-15T09:33:01;15.80;4.30
67974;DHT22;54756;51.140;6.952;2023-04-15T09:35:10;15.90;5.90
67974;DHT22;54756;51.140;6.952;2023-04-15T09:37:12;15.90;8.70
67974;DHT22;54756;51.140;6.952;2023-04-15T09:39:15;16.10;9.50
67974;DHT22;54756;51.140;6.952;2023-04-15T09:41:16;16.20;8.40
67974;DHT22;54756;51.140;6.952;2023-04-15T09:43:20;16.40;5.20
67974;DHT22;54756;51.140;6.952;2023-04-15T09:45:21;16.60;3.70
67974;DHT22;54756;51.140;6.952;2023-04-15T09:47:29;16.80;3.10
67974;DHT22;54756;51.140;6.952;2023-04-15T09:49:29;17.00;2.70
67974;DHT22;54756;51.140;6.952;2023-04-15T09:51:36;17.20;1.00
67974;DHT22;54756;51.140;6.952;2023-04-15T09:53:37;17.40;1.00
67974;DHT22;54756;51.140;6.952;2023-04-15T09:55:37;17.50;1.00
67974;DHT22;54756;51.140;6.952;2023-04-15T09:57:38;17.70;1.00
67974;DHT22;54756;51.140;6.952;2023-04-15T09:59:43;17.80;1.00
67974;DHT22;54756;51.140;6.952;2023-04-15T10:01:44;17.90;1.00
67974;DHT22;54756;51.140;6.952;2023-04-15T10:03:45;18.00;1.00
67974;DHT22;54756;51.140;6.952;2023-04-15T10:05:49;18.20;1.00
67974;DHT22;54756;51.140;6.952;2023-04-15T10:07:50;18.30;1.00
67974;DHT22;54756;51.140;6.952;2023-04-15T10:09:51;18.20;1.00
67974;DHT22;54756;51.140;6.952;2023-04-15T10:11:52;18.10;1.00
67974;DHT22;54756;51.140;6.952;2023-04-15T10:13:53;18.10;1.00
67974;DHT22;54756;51.140;6.952;2023-04-15T10:16:05;18.00;1.00
67974;DHT22;54756;51.140;6.952;2023-04-15T10:18:07;17.90;1.00
67974;DHT22;54756;51.140;6.952;2023-04-15T10:20:09;18.00;1.00
67974;DHT22;54756;51.140;6.952;2023-04-15T10:22:13;18.30;1.00
67974;DHT22;54756;51.140;6.952;2023-04-15T10:24:14;18.60;1.00
67974;DHT22;54756;51.140;6.952;2023-04-15T10:26:16;18.70;1.00
67974;DHT22;54756;51.140;6.952;2023-04-15T10:28:17;18.90;1.00
67974;DHT22;54756;51.140;6.952;2023-04-15T10:30:19;19.00;1.00
67974;DHT22;54756;51.140;6.952;2023-04-15T10:32:20;19.10;1.00
67974;DHT22;54756;51.140;6.952;2023-04-15T10:34:24;19.30;1.00
67974;DHT22;54756;51.140;6.952;2023-04-15T10:36:25;19.50;1.00
67974;DHT22;54756;51.140;6.952;2023-04-15T10:40:38;19.50;1.00
67974;DHT22;54756;51.140;6.952;2023-04-15T10:42:38;19.60;1.00
67974;DHT22;54756;51.140;6.952;2023-04-15T10:44:44;19.50;1.00
67974;DHT22;54756;51.140;6.952;2023-04-15T10:46:50;19.30;1.00
67974;DHT22;54756;51.140;6.952;2023-04-15T10:48:52;19.10;1.00
67974;DHT22;54756;51.140;6.952;2023-04-15T10:50:57;18.80;1.00
67974;DHT22;54756;51.140;6.952;2023-04-15T10:52:58;18.70;1.00
67974;DHT22;54756;51.140;6.952;2023-04-15T10:55:18;18.50;1.00
67974;DHT22;54756;51.140;6.952;2023-04-15T10:57:22;18.40;1.00
67974;DHT22;54756;51.140;6.952;2023-04-15T10:59:23;18.10;1.00
67974;DHT22;54756;51.140;6.952;2023-04-15T11:01:53;17.70;1.00
67974;DHT22;54756;51.140;6.952;2023-04-15T11:03:55;17.50;1.00
67974;DHT22;54756;51.140;6.952;2023-04-15T11:05:56;17.20;1.00
67974;DHT22;54756;51.140;6.952;2023-04-15T11:07:57;16.90;1.00
67974;DHT22;54756;51.140;6.952;2023-04-15T11:09:58;16.70;1.00
67974;DHT22;54756;51.140;6.952;2023-04-15T11:12:08;16.60;3.40
67974;DHT22;54756;51.140;6.952;2023-04-15T11:14:14;16.50;6.00
67974;DHT22;54756;51.140;6.952;2023-04-15T11:16:15;16.60;5.90
67974;DHT22;54756;51.140;6.952;2023-04-15T11:20:17;17.00;2.70
67974;DHT22;54756;51.140;6.952;2023-04-15T11:22:18;17.10;2.50
67974;DHT22;54756;51.140;6.952;2023-04-15T11:24:25;17.50;1.00
67974;DHT22;54756;51.140;6.952;2023-04-15T11:26:28;17.80;1.00
67974;DHT22;54756;51.140;6.952;2023-04-15T11:28:30;17.90;1.00
67974;DHT22;54756;51.140;6.952;2023-04-15T11:30:32;17.80;1.00
67974;DHT22;54756;51.140;6.952;2023-04-15T11:32:33;17.80;1.00
67974;DHT22;54756;51.140;6.952;2023-04-15T11:34:33;17.70;1.00
67974;DHT22;54756;51.140;6.952;2023-04-15T11:36:35;17.70;1.30
67974;DHT22;54756;51.140;6.952;2023-04-15T11:38:36;17.70;1.00
67974;DHT22;54756;51.140;6.952;2023-04-15T11:40:38;17.60;2.60
67974;DHT22;54756;51.140;6.952;2023-04-15T11:42:38;17.80;2.40
67974;DHT22;54756;51.140;6.952;2023-04-15T11:44:39;18.00;1.00
67974;DHT22;54756;51.140;6.952;2023-04-15T11:46:40;18.40;1.00
67974;DHT22;54756;51.140;6.952;2023-04-15T11:48:43;19.50;1.00
67974;DHT22;54756;51.140;6.952;2023-04-15T11:50:44;19.80;1.00
67974;DHT22;54756;51.140;6.952;2023-04-15T11:52:58;19.50;1.00
67974;DHT22;54756;51.140;6.952;2023-04-15T11:55:03;19.30;1.00
67974;DHT22;54756;51.140;6.952;2023-04-15T11:57:04;19.10;1.00
67974;DHT22;54756;51.140;6.952;2023-04-15T11:59:04;18.80;1.00
67974;DHT22;54756;51.140;6.952;2023-04-15T12:01:06;18.50;1.00
67974;DHT22;54756;51.140;6.952;2023-04-15T12:03:17;18.20;1.00
67974;DHT22;54756;51.140;6.952;2023-04-15T12:05:21;17.90;1.00
67974;DHT22;54756;51.140;6.952;2023-04-15T12:07:21;17.50;1.00
67974;DHT22;54756;51.140;6.952;2023-04-15T12:09:22;17.10;2.60
67974;DHT22;54756;51.140;6.952;2023-04-15T12:13:26;16.50;9.10
67974;DHT22;54756;51.140;6.952;2023-04-15T12:15:27;16.30;13.80
67974;DHT22;54756;51.140;6.952;2023-04-15T12:17:27;16.10;14.00
67974;DHT22;54756;51.140;6.952;2023-04-15T12:19:30;15.90;15.50
67974;DHT22;54756;51.140;6.952;2023-04-15T12:21:37;15.60;18.30
67974;DHT22;54756;51.140;6.952;2023-04-15T12:25:52;15.00;25.50
67974;DHT22;54756;51.140;6.952;2023-04-15T12:27:53;14.70;24.80
67974;DHT22;54756;51.140;6.952;2023-04-15T12:30:03;14.50;27.70
67974;DHT22;54756;51.140;6.952;2023-04-15T12:32:12;14.30;29.90
67974;DHT22;54756;51.140;6.952;2023-04-15T12:34:13;14.20;33.30
67974;DHT22;54756;51.140;6.952;2023-04-15T12:36:14;14.00;33.20
67974;DHT22;54756;51.140;6.952;2023-04-15T12:38:15;13.90;35.90
67974;DHT22;54756;51.140;6.952;2023-04-15T12:40:16;13.80;33.70
67974;DHT22;54756;51.140;6.952;2023-04-15T12:42:17;13.90;37.70
67974;DHT22;54756;51.140;6.952;2023-04-15T12:44:18;13.90;36.80
67974;DHT22;54756;51.140;6.952;2023-04-15T12:46:18;14.00;35.00
67974;DHT22;54756;51.140;6.952;2023-04-15T12:48:19;14.10;34.30
67974;DHT22;54756;51.140;6.952;2023-04-15T12:50:20;14.10;35.70
67974;DHT22;54756;51.140;6.952;2023-04-15T12:52:20;14.10;36.50
67974;DHT22;54756;51.140;6.952;2023-04-15T12:54:21;14.00;34.40
67974;DHT22;54756;51.140;6.952;2023-04-15T12:56:22;13.90;36.30
67974;DHT22;54756;51.140;6.952;2023-04-15T12:58:23;13.70;38.70
67974;DHT22;54756;51.140;6.952;2023-04-15T13:00:23;13.60;38.80
67974;DHT22;54756;51.140;6.952;2023-04-15T13:02:24;13.40;39.40
67974;DHT22;54756;51.140;6.952;2023-04-15T13:04:27;13.20;40.30
67974;DHT22;54756;51.140;6.952;2023-04-15T13:06:30;13.10;41.40